»·PEaware :: WAT169 KSNA-KLAS

WAT169 :: KSNA-KLAS

FLIGHT INFORMATION

Flight Status: Arrived
Operator:
Walker Air Transport
More flights by this operator :: More flights under this callsign
Pilot: Marty P. (27464)
Aircraft: BOEING 737-800
(B738)
More flights by this aircraft type
Origin: KSNA John Wayne-Orange Co
United States
Destination: KLAS McCarran Intl
United States
More flights between these airports :: More routes between these airports
Route: FINZZ3 MISEN KEPEC6
File this flight plan on PilotEdge
Remarks:
Altitude:
(Current/Filed)
27,000ft
Speed:
(Current/Filed)
500kts
Departed: 10-Jan-21 04:31 PM
Arrived: 10-Jan-21 05:18 PM
Distance/Time
Traveled:
197nm/0:47
Distance/Time
To Go:
Arrived

Flight Plot

Page will automatically refresh every two minutes.

Flight plan parsing failed; only flown route is shown


Map Options




Map Legend


Flown Route
Filed Route
Departure Airport
Arrival Airport
Navaid (VOR, NDB)
Fix

Horizontal Profiles

Position Reports

Time Latitude Longitude Heading Altitude Ground
Speed
10-Jan-21 16:07 33.675005 -117.865072 118 67ft 0kts
10-Jan-21 16:08 33.675005 -117.865072 118 67ft 0kts
10-Jan-21 16:09 33.675005 -117.865072 118 66ft 0kts
10-Jan-21 16:10 33.675005 -117.865072 118 66ft 0kts
10-Jan-21 16:11 33.675005 -117.865072 118 66ft 0kts
10-Jan-21 16:12 33.675005 -117.865072 118 66ft 0kts
10-Jan-21 16:13 33.675005 -117.865072 118 66ft 0kts
10-Jan-21 16:14 33.675005 -117.865072 118 66ft 0kts
10-Jan-21 16:15 33.675005 -117.865072 118 66ft 0kts
10-Jan-21 16:16 33.675005 -117.865072 118 66ft 0kts
10-Jan-21 16:17 33.675005 -117.865072 118 66ft 0kts
10-Jan-21 16:18 33.675005 -117.865072 118 66ft 0kts
10-Jan-21 16:19 33.675005 -117.865072 118 66ft 0kts
10-Jan-21 16:20 33.675005 -117.865072 118 66ft 0kts
10-Jan-21 16:21 33.675005 -117.865072 118 66ft 0kts
10-Jan-21 16:22 33.675005 -117.865072 118 66ft 0kts
10-Jan-21 16:23 33.675041 -117.865152 117 66ft 2kts
10-Jan-21 16:24 33.675117 -117.865761 58 66ft 2kts
10-Jan-21 16:25 33.674922 -117.865964 27 66ft 0kts
10-Jan-21 16:26 33.674922 -117.865964 27 66ft 0kts
10-Jan-21 16:27 33.676760 -117.864791 27 66ft 18kts
10-Jan-21 16:28 33.680587 -117.862958 306 66ft 6kts
10-Jan-21 16:29 33.680884 -117.863583 298 66ft 9kts
10-Jan-21 16:30 33.679104 -117.866679 207 66ft 76kts
10-Jan-21 16:31 33.640093 -117.889081 196 1805ft 193kts
10-Jan-21 16:32 33.577388 -117.902086 202 4577ft 246kts
10-Jan-21 16:33 33.522977 -117.954240 230 7826ft 264kts
10-Jan-21 16:34 33.510805 -118.035172 296 8004ft 249kts
10-Jan-21 16:35 33.558047 -118.093920 332 8335ft 260kts
10-Jan-21 16:36 33.629090 -118.105247 12 11501ft 304kts
10-Jan-21 16:37 33.714747 -118.057049 22 13994ft 357kts
10-Jan-21 16:38 33.805665 -118.003730 21 16913ft 375kts
10-Jan-21 16:39 33.901119 -117.946774 28 19542ft 392kts
10-Jan-21 16:40 33.990243 -117.868030 33 22064ft 402kts
10-Jan-21 16:41 34.076983 -117.781652 41 24235ft 413kts
10-Jan-21 16:42 34.155381 -117.676620 45 26039ft 428kts
10-Jan-21 16:43 34.233002 -117.563831 45 27196ft 452kts
10-Jan-21 16:44 34.314646 -117.442906 46 27217ft 478kts
10-Jan-21 16:45 34.398814 -117.316837 46 27244ft 480kts
10-Jan-21 16:46 34.482899 -117.190725 46 27233ft 482kts
10-Jan-21 16:47 34.567555 -117.064136 45 27255ft 482kts
10-Jan-21 16:48 34.653579 -116.938905 45 27260ft 484kts
10-Jan-21 16:49 34.739973 -116.812801 45 27264ft 485kts
10-Jan-21 16:50 34.826298 -116.686904 42 27264ft 483kts
10-Jan-21 16:51 34.924787 -116.577103 33 27265ft 478kts
10-Jan-21 16:52 35.028315 -116.476223 33 26327ft 476kts
10-Jan-21 16:53 35.123458 -116.375845 39 24257ft 432kts
10-Jan-21 16:54 35.206269 -116.273458 40 23299ft 425kts
10-Jan-21 16:55 35.286297 -116.173333 40 21302ft 407kts
10-Jan-21 16:56 35.364491 -116.075066 40 19296ft 397kts
10-Jan-21 16:57 35.440575 -115.978963 40 17290ft 387kts
10-Jan-21 16:58 35.514042 -115.885931 40 15287ft 375kts
10-Jan-21 16:59 35.584518 -115.796418 41 13031ft 346kts
10-Jan-21 17:00 35.642399 -115.722487 40 13021ft 277kts
10-Jan-21 17:01 35.696202 -115.653711 41 13018ft 278kts
10-Jan-21 17:02 35.753089 -115.590035 23 13019ft 271kts
10-Jan-21 17:03 35.819529 -115.546870 28 12994ft 274kts
10-Jan-21 17:04 35.882666 -115.495715 28 12090ft 268kts
10-Jan-21 17:05 35.944409 -115.445668 29 11197ft 266kts
10-Jan-21 17:06 36.005351 -115.395059 43 10986ft 269kts
10-Jan-21 17:07 36.026079 -115.305746 92 9996ft 280kts
10-Jan-21 17:08 36.019325 -115.212185 95 9048ft 258kts
10-Jan-21 17:09 36.013325 -115.124096 94 7991ft 251kts
10-Jan-21 17:10 36.007863 -115.040414 94 6571ft 239kts
10-Jan-21 17:11 36.003101 -114.959831 94 5242ft 228kts
10-Jan-21 17:12 36.041016 -114.923928 1 4984ft 192kts
10-Jan-21 17:13 36.074132 -114.960102 269 4815ft 200kts
10-Jan-21 17:14 36.073578 -115.021644 270 3755ft 162kts
10-Jan-21 17:15 36.073645 -115.077087 270 2865ft 159kts
10-Jan-21 17:16 36.073644 -115.131415 270 2066ft 149kts
10-Jan-21 17:17 36.074732 -115.145917 299 2104ft 0kts
10-Jan-21 17:19 36.077235 -115.146625 345 2103ft 24kts
10-Jan-21 17:20 36.080305 -115.147327 65 2099ft 0kts
10-Jan-21 17:21 36.080314 -115.147301 65 2099ft 0kts

Navigation Log

Ident Type
Flight plan parsing failed, navigation log unavailable